Time;durP1;ratioP1;P1;durP2;ratioP2;P2;SDS_P1;SDS_P2;PMS_P1;PMS_P2;Temp;Humidity;BMP_temperature;BMP_pressure;BME280_temperature;BME280_humidity;BME280_pressure;Samples;Min_cycle;Max_cycle;Signal;HPM_P1;HPM_P2
2024/04/20 00:01:21;;;;;;;2.83;1.30;;;5.70;99.90;;;;;;5207164;27;20284;-78
2024/04/20 00:03:50;;;;;;;2.43;1.30;;;5.70;99.90;;;;;;5190847;27;20338;-78
2024/04/20 00:06:16;;;;;;;1.23;1.13;;;5.70;99.90;;;;;;5228625;27;20249;-78
2024/04/20 00:08:44;;;;;;;1.63;1.20;;;5.80;99.90;;;;;;5193272;27;20236;-78
2024/04/20 00:11:09;;;;;;;1.17;0.90;;;5.70;99.90;;;;;;5202030;27;20245;-78
2024/04/20 00:13:39;;;;;;;2.13;1.10;;;5.70;99.90;;;;;;5195579;27;20668;-78
2024/04/20 00:16:05;;;;;;;1.30;1.10;;;5.70;99.90;;;;;;5206650;27;21238;-78
2024/04/20 00:18:30;;;;;;;2.40;0.93;;;5.80;99.90;;;;;;5220958;27;20237;-79
2024/04/20 00:20:56;;;;;;;2.77;0.80;;;5.80;99.90;;;;;;5223957;27;20284;-79
2024/04/20 00:23:22;;;;;;;7.03;1.57;;;5.70;99.90;;;;;;5230049;27;20245;-78
2024/04/20 00:25:48;;;;;;;1.27;0.90;;;5.70;99.90;;;;;;5207684;27;21042;-78
2024/04/20 00:28:13;;;;;;;1.20;1.10;;;5.60;99.90;;;;;;5197885;27;20276;-78
2024/04/20 00:30:39;;;;;;;1.10;1.00;;;5.60;99.90;;;;;;5206297;27;20257;-78
2024/04/20 00:33:05;;;;;;;2.30;1.30;;;5.60;99.90;;;;;;5212032;27;20872;-78
2024/04/20 00:35:40;;;;;;;1.13;1.03;;;5.60;99.90;;;;;;5212995;27;20982;-78
2024/04/20 00:38:09;;;;;;;1.30;1.20;;;5.60;99.90;;;;;;5192219;27;20343;-79
2024/04/20 00:40:34;;;;;;;3.53;1.50;;;5.70;99.90;;;;;;5203509;27;20240;-79
2024/04/20 00:43:00;;;;;;;1.30;1.13;;;5.70;99.90;;;;;;5227249;27;20275;-78
2024/04/20 00:45:26;;;;;;;1.30;1.20;;;5.70;99.90;;;;;;5210392;27;20251;-78
2024/04/20 00:47:52;;;;;;;1.33;1.20;;;5.60;99.90;;;;;;5224948;27;20236;-78
2024/04/20 00:50:20;;;;;;;1.57;1.10;;;5.70;99.90;;;;;;5227614;27;20240;-78
2024/04/20 00:52:46;;;;;;;2.43;1.10;;;5.70;99.90;;;;;;5196340;27;20836;-77
2024/04/20 00:55:12;;;;;;;1.30;1.20;;;5.70;99.90;;;;;;5207212;27;20291;-78
2024/04/20 00:57:38;;;;;;;2.40;1.50;;;5.70;99.90;;;;;;5210227;27;20237;-78
2024/04/20 01:00:05;;;;;;;1.00;0.90;;;5.70;99.90;;;;;;5219679;27;20237;-78
2024/04/20 01:02:31;;;;;;;1.37;1.20;;;5.70;99.90;;;;;;5204954;27;20238;-78
2024/04/20 01:04:57;;;;;;;1.17;1.03;;;5.70;99.90;;;;;;5205170;27;20245;-78
2024/04/20 01:07:23;;;;;;;1.80;1.30;;;5.60;99.90;;;;;;5202906;27;20284;-78
2024/04/20 01:09:49;;;;;;;1.70;1.17;;;5.70;99.90;;;;;;5227688;27;20280;-78
2024/04/20 01:12:14;;;;;;;1.40;1.20;;;5.70;99.90;;;;;;5217082;27;20276;-78
2024/04/20 01:14:40;;;;;;;1.60;1.33;;;5.70;99.90;;;;;;5211647;27;20240;-78
2024/04/20 01:17:06;;;;;;;1.17;1.03;;;5.70;99.90;;;;;;5210476;27;20583;-78
2024/04/20 01:19:33;;;;;;;2.03;1.20;;;5.70;99.90;;;;;;5205823;27;20249;-78
2024/04/20 01:21:59;;;;;;;1.40;1.10;;;5.70;99.90;;;;;;5205578;27;20333;-78
2024/04/20 01:24:27;;;;;;;1.83;1.30;;;5.60;99.90;;;;;;5210559;27;20245;-78
2024/04/20 01:26:53;;;;;;;1.50;1.40;;;5.60;99.90;;;;;;5222237;27;20585;-78
2024/04/20 01:29:19;;;;;;;1.80;1.30;;;5.60;99.90;;;;;;5195949;27;20283;-78
2024/04/20 01:31:45;;;;;;;2.20;1.40;;;5.60;99.90;;;;;;5205505;27;20241;-78
2024/04/20 01:34:11;;;;;;;1.63;1.40;;;5.50;99.90;;;;;;5199399;27;20287;-78
2024/04/20 01:36:36;;;;;;;2.37;1.80;;;5.50;99.90;;;;;;5212284;27;20234;-78
2024/04/20 01:39:02;;;;;;;2.53;1.80;;;5.50;99.90;;;;;;5204572;27;20257;-78
2024/04/20 01:41:28;;;;;;;1.87;1.60;;;5.50;99.90;;;;;;5197619;27;20296;-78
2024/04/20 01:43:53;;;;;;;1.50;1.40;;;5.50;99.90;;;;;;5191497;27;20253;-78
2024/04/20 01:46:19;;;;;;;2.00;1.80;;;5.50;99.90;;;;;;5211506;27;20616;-79
2024/04/20 01:48:45;;;;;;;3.37;1.90;;;5.40;99.90;;;;;;5196077;27;20241;-79
2024/04/20 01:51:10;;;;;;;1.87;1.70;;;5.30;99.90;;;;;;5198088;27;20696;-79
2024/04/20 01:53:36;;;;;;;2.10;1.90;;;5.40;99.90;;;;;;5191904;27;20253;-78
2024/04/20 01:56:04;;;;;;;2.13;1.90;;;5.30;99.90;;;;;;5222143;27;20731;-78
2024/04/20 01:58:31;;;;;;;2.90;2.10;;;5.30;99.90;;;;;;5205868;27;20776;-78
2024/04/20 02:00:57;;;;;;;3.33;2.00;;;5.30;99.90;;;;;;5193451;27;20985;-78
2024/04/20 02:03:22;;;;;;;3.50;2.30;;;5.30;99.90;;;;;;5201085;27;20279;-79
2024/04/20 02:05:48;;;;;;;3.67;2.20;;;5.30;99.90;;;;;;5224838;27;20346;-78
2024/04/20 02:08:15;;;;;;;2.80;2.50;;;5.20;99.90;;;;;;5200228;27;20262;-78
2024/04/20 02:10:41;;;;;;;2.67;2.40;;;5.20;99.90;;;;;;5213929;27;21154;-78
2024/04/20 02:14:50;;;;;;;4.40;2.43;;;5.20;99.90;;;;;;5502073;25;20585;-79
2024/04/20 02:17:16;;;;;;;5.03;2.90;;;5.20;99.90;;;;;;5464173;26;20343;-79
2024/04/20 02:19:41;;;;;;;2.97;2.50;;;5.20;99.90;;;;;;5465569;26;20330;-79
2024/04/20 02:22:07;;;;;;;3.97;2.57;;;5.20;99.90;;;;;;5466551;26;20221;-79
2024/04/20 02:24:33;;;;;;;2.90;2.50;;;5.20;99.90;;;;;;5467046;26;20267;-79
2024/04/20 02:26:59;;;;;;;4.73;2.40;;;5.20;99.90;;;;;;5464902;26;20314;-79
2024/04/20 02:29:24;;;;;;;4.27;2.53;;;5.20;99.90;;;;;;5463623;26;20251;-79
2024/04/20 02:31:50;;;;;;;4.80;3.10;;;5.20;99.90;;;;;;5466556;26;20268;-79
2024/04/20 02:34:17;;;;;;;3.43;2.83;;;5.20;99.90;;;;;;5465498;26;20237;-79
2024/04/20 02:36:42;;;;;;;4.00;3.03;;;5.20;99.90;;;;;;5465394;26;21009;-79
2024/04/20 02:39:08;;;;;;;3.70;2.73;;;5.20;99.90;;;;;;5465423;26;20229;-79
2024/04/20 02:41:34;;;;;;;3.53;2.70;;;5.20;99.90;;;;;;5464177;26;20308;-79
2024/04/20 02:43:59;;;;;;;4.07;2.37;;;5.20;99.90;;;;;;5464499;26;20226;-79
2024/04/20 02:46:27;;;;;;;3.73;2.50;;;5.20;99.90;;;;;;5466820;26;20239;-79
2024/04/20 02:48:52;;;;;;;5.70;2.80;;;5.20;99.90;;;;;;5467177;26;20274;-79
2024/04/20 02:51:18;;;;;;;6.10;2.90;;;5.20;99.90;;;;;;5468459;26;20230;-79
2024/04/20 02:53:44;;;;;;;4.03;2.43;;;5.20;99.90;;;;;;5466466;26;20229;-79
2024/04/20 02:56:10;;;;;;;4.77;2.50;;;5.20;99.90;;;;;;5465247;26;20233;-79
2024/04/20 02:58:35;;;;;;;3.93;2.67;;;5.20;99.90;;;;;;5463016;26;20217;-79
2024/04/20 03:01:02;;;;;;;5.13;2.87;;;5.20;99.90;;;;;;5463749;26;20226;-79
2024/04/20 03:03:32;;;;;;;3.67;2.83;;;5.10;99.90;;;;;;5461829;26;20272;-79
2024/04/20 03:05:59;;;;;;;4.00;2.37;;;5.20;99.90;;;;;;5459347;26;20718;-79
2024/04/20 03:08:25;;;;;;;3.53;2.57;;;5.20;99.90;;;;;;5460122;26;20268;-79
2024/04/20 03:10:50;;;;;;;3.30;2.80;;;5.10;99.90;;;;;;5461654;26;20241;-79
2024/04/20 03:13:16;;;;;;;3.57;2.70;;;5.10;99.90;;;;;;5463850;26;20233;-79
2024/04/20 03:15:43;;;;;;;3.23;2.60;;;5.10;99.90;;;;;;5462715;26;20259;-79
2024/04/20 03:18:12;;;;;;;4.00;2.97;;;5.10;99.90;;;;;;5460861;26;20256;-79
2024/04/20 03:20:38;;;;;;;3.83;2.53;;;5.10;99.90;;;;;;5462135;26;20227;-79
2024/04/20 03:23:03;;;;;;;5.60;2.97;;;5.10;99.90;;;;;;5461021;26;20321;-79
2024/04/20 03:25:29;;;;;;;5.17;2.73;;;5.10;99.90;;;;;;5450053;26;20229;-79
2024/04/20 03:27:55;;;;;;;3.80;2.50;;;5.00;99.90;;;;;;5445676;26;20746;-79
2024/04/20 03:30:20;;;;;;;4.20;2.53;;;5.00;99.90;;;;;;5447484;26;20230;-79
2024/04/20 03:32:46;;;;;;;3.70;2.60;;;5.00;99.90;;;;;;5444482;26;20273;-79
2024/04/20 03:35:12;;;;;;;4.27;2.50;;;5.00;99.90;;;;;;5445143;26;20989;-78
2024/04/20 03:37:40;;;;;;;3.17;2.47;;;5.00;99.90;;;;;;5447823;26;20226;-79
2024/04/20 03:40:06;;;;;;;4.73;2.40;;;5.00;99.90;;;;;;5433176;26;20214;-79
2024/04/20 03:42:32;;;;;;;5.33;2.53;;;5.00;99.90;;;;;;5444661;26;20797;-79
2024/04/20 03:44:58;;;;;;;4.70;2.27;;;4.90;99.90;;;;;;5444170;26;20276;-79
2024/04/20 03:47:23;;;;;;;3.77;2.10;;;4.90;99.90;;;;;;5446674;26;20242;-79
2024/04/20 03:49:49;;;;;;;4.50;2.40;;;4.80;99.90;;;;;;5446209;26;20237;-79
2024/04/20 03:52:15;;;;;;;4.83;2.00;;;4.80;99.90;;;;;;5446201;26;20650;-79
2024/04/20 03:54:40;;;;;;;3.30;1.90;;;4.70;99.90;;;;;;5446344;26;20636;-79
2024/04/20 03:57:06;;;;;;;3.67;2.77;;;4.70;99.90;;;;;;5445523;26;20919;-79
2024/04/20 03:59:32;;;;;;;6.73;2.40;;;4.60;99.90;;;;;;5446632;26;20294;-79
2024/04/20 04:01:58;;;;;;;2.93;2.10;;;4.60;99.90;;;;;;5448560;26;20234;-79
2024/04/20 04:04:24;;;;;;;3.03;1.97;;;4.60;99.90;;;;;;5448137;26;20230;-79
2024/04/20 04:06:50;;;;;;;2.90;2.10;;;4.60;99.90;;;;;;5448642;26;20281;-78
2024/04/20 04:09:16;;;;;;;5.53;2.63;;;4.60;99.90;;;;;;5445144;26;20560;-79
2024/04/20 04:11:43;;;;;;;2.87;2.00;;;4.60;99.90;;;;;;5445628;26;20606;-78
2024/04/20 04:14:09;;;;;;;5.70;2.27;;;4.50;99.90;;;;;;5447607;26;20237;-79
2024/04/20 04:16:35;;;;;;;3.40;2.10;;;4.60;99.90;;;;;;5449224;26;20730;-78
2024/04/20 04:19:01;;;;;;;3.50;2.27;;;4.60;99.90;;;;;;5445491;26;20302;-79
2024/04/20 04:21:27;;;;;;;4.13;2.27;;;4.60;99.90;;;;;;5447810;26;20222;-79
2024/04/20 04:23:53;;;;;;;4.10;2.27;;;4.70;99.90;;;;;;5446194;26;20222;-79
2024/04/20 04:26:18;;;;;;;2.40;1.80;;;4.70;99.90;;;;;;5445646;26;20257;-79
2024/04/20 04:28:44;;;;;;;5.00;2.40;;;4.70;99.90;;;;;;5446648;26;20601;-79
2024/04/20 04:31:10;;;;;;;2.83;2.13;;;4.70;99.90;;;;;;5446667;26;20238;-79
2024/04/20 04:33:36;;;;;;;2.60;2.03;;;4.80;99.90;;;;;;5444420;26;20586;-79
2024/04/20 04:36:02;;;;;;;4.97;2.20;;;4.90;99.90;;;;;;5444615;26;20292;-79
2024/04/20 04:38:28;;;;;;;4.20;2.00;;;4.80;99.90;;;;;;5444754;26;20248;-79
2024/04/20 04:40:53;;;;;;;6.67;2.30;;;4.90;99.90;;;;;;5447177;26;20282;-79
2024/04/20 04:43:20;;;;;;;4.17;2.17;;;4.90;99.90;;;;;;5447003;26;20256;-79
2024/04/20 04:45:46;;;;;;;4.67;2.63;;;4.90;99.90;;;;;;5446801;26;20896;-78
2024/04/20 04:48:22;;;;;;;2.93;2.60;;;4.90;99.90;;;;;;5446834;26;20277;-79
2024/04/20 04:50:48;;;;;;;6.07;2.50;;;4.90;99.90;;;;;;5445738;26;20226;-78
2024/04/20 04:53:14;;;;;;;3.23;2.40;;;4.90;99.90;;;;;;5446395;26;20277;-79
2024/04/20 04:55:40;;;;;;;4.53;2.57;;;4.80;99.90;;;;;;5446493;26;20277;-78
2024/04/20 04:58:07;;;;;;;3.40;2.43;;;4.90;99.90;;;;;;5430484;26;20230;-78
2024/04/20 05:00:33;;;;;;;6.70;2.67;;;4.80;99.90;;;;;;5445757;26;20218;-79
2024/04/20 05:02:59;;;;;;;3.57;2.40;;;4.80;99.90;;;;;;5446907;26;20238;-78
2024/04/20 05:05:24;;;;;;;4.13;2.60;;;4.80;99.90;;;;;;5447843;26;20268;-79
2024/04/20 05:07:51;;;;;;;4.90;2.93;;;4.70;99.90;;;;;;5445473;26;20303;-79
2024/04/20 05:10:17;;;;;;;4.93;2.83;;;4.70;99.90;;;;;;5444822;26;20242;-78
2024/04/20 05:12:43;;;;;;;5.00;2.77;;;4.70;99.90;;;;;;5444199;26;20726;-78
2024/04/20 05:15:08;;;;;;;4.40;2.90;;;4.70;99.90;;;;;;5447631;26;20245;-79
2024/04/20 05:17:37;;;;;;;3.80;2.60;;;4.70;99.90;;;;;;5447273;26;20268;-79
2024/04/20 05:20:04;;;;;;;4.87;2.90;;;4.70;99.90;;;;;;5446880;26;20226;-78
2024/04/20 05:22:30;;;;;;;4.57;2.50;;;4.70;99.90;;;;;;5447763;26;20234;-78
2024/04/20 05:24:56;;;;;;;4.13;2.80;;;4.70;99.90;;;;;;5445468;26;20231;-78
2024/04/20 05:27:21;;;;;;;3.53;2.57;;;4.60;99.90;;;;;;5442257;26;20238;-78
2024/04/20 05:29:47;;;;;;;6.67;2.87;;;4.70;99.90;;;;;;5443676;26;20238;-79
2024/04/20 05:32:13;;;;;;;7.10;2.73;;;4.70;99.90;;;;;;5445351;26;20230;-78
2024/04/20 05:34:38;;;;;;;4.47;2.53;;;4.70;99.90;;;;;;5444879;26;20234;-79
2024/04/20 05:37:04;;;;;;;6.77;3.33;;;4.80;99.90;;;;;;5442896;26;20289;-79
2024/04/20 05:39:32;;;;;;;4.50;3.03;;;4.80;99.90;;;;;;5442560;26;20801;-79
2024/04/20 05:41:58;;;;;;;5.50;2.77;;;4.90;99.90;;;;;;5443997;26;20281;-78
2024/04/20 05:44:26;;;;;;;4.47;2.70;;;4.90;99.90;;;;;;5446136;26;20234;-79
2024/04/20 05:46:51;;;;;;;4.00;2.67;;;4.80;99.90;;;;;;5445261;26;20230;-78
2024/04/20 05:49:17;;;;;;;3.30;2.30;;;4.90;99.90;;;;;;5445630;26;20276;-79
2024/04/20 05:51:43;;;;;;;4.73;2.70;;;4.90;99.90;;;;;;5444977;26;20272;-78
2024/04/20 05:54:09;;;;;;;4.63;2.63;;;4.90;99.90;;;;;;5443183;26;20387;-79
2024/04/20 05:56:35;;;;;;;5.90;2.53;;;4.90;99.90;;;;;;5444680;26;20635;-78
2024/04/20 05:59:00;;;;;;;4.17;2.57;;;4.90;99.90;;;;;;5444283;26;20230;-78
2024/04/20 06:01:26;;;;;;;2.20;1.93;;;5.00;99.90;;;;;;5445398;26;20738;-79
2024/04/20 06:03:52;;;;;;;3.27;2.30;;;5.00;99.90;;;;;;5444330;26;20654;-78
2024/04/20 06:06:17;;;;;;;3.87;2.43;;;5.10;99.90;;;;;;5441510;26;20242;-79
2024/04/20 06:08:43;;;;;;;5.77;2.20;;;5.20;99.90;;;;;;5441961;26;20245;-78
2024/04/20 06:11:09;;;;;;;5.57;2.37;;;5.20;99.90;;;;;;5448030;26;20277;-79
2024/04/20 06:13:35;;;;;;;4.37;2.77;;;5.20;99.90;;;;;;5444670;26;20726;-78
2024/04/20 06:16:01;;;;;;;5.30;2.60;;;5.20;99.90;;;;;;5445551;26;20241;-79
2024/04/20 06:18:27;;;;;;;4.20;3.07;;;5.20;99.90;;;;;;5442940;26;20314;-78
2024/04/20 06:20:53;;;;;;;9.77;4.80;;;5.40;99.90;;;;;;5445173;26;20237;-78
2024/04/20 06:23:19;;;;;;;28.67;14.23;;;5.40;99.90;;;;;;5445509;26;20837;-78
2024/04/20 06:25:45;;;;;;;7.97;5.50;;;5.40;99.90;;;;;;5443574;26;20256;-78
2024/04/20 06:28:10;;;;;;;2.80;2.50;;;5.40;99.90;;;;;;5446361;26;20245;-79
2024/04/20 06:30:36;;;;;;;4.33;2.67;;;5.40;99.90;;;;;;5442525;26;20264;-79
2024/04/20 06:33:02;;;;;;;6.17;3.00;;;5.30;99.90;;;;;;5443747;26;20265;-78
2024/04/20 06:35:28;;;;;;;6.60;3.90;;;5.40;99.90;;;;;;5443605;26;20273;-79
2024/04/20 06:37:53;;;;;;;4.83;2.97;;;5.40;99.90;;;;;;5434532;26;20247;-79
2024/04/20 06:40:19;;;;;;;4.00;2.60;;;5.50;99.90;;;;;;5444199;26;20342;-79
2024/04/20 06:42:48;;;;;;;4.50;2.93;;;5.70;99.90;;;;;;5432251;26;21109;-79
2024/04/20 06:45:14;;;;;;;4.23;2.57;;;5.80;99.90;;;;;;5442855;26;20293;-78
2024/04/20 06:47:40;;;;;;;3.97;2.53;;;5.70;99.90;;;;;;5445602;26;20230;-78
2024/04/20 06:50:07;;;;;;;3.43;2.40;;;5.60;99.90;;;;;;5437290;26;20331;-78
2024/04/20 06:52:34;;;;;;;2.93;2.40;;;5.60;99.90;;;;;;5442780;26;20347;-78
2024/04/20 06:54:59;;;;;;;4.30;2.83;;;5.50;99.90;;;;;;5440935;26;20584;-79
2024/04/20 06:57:25;;;;;;;3.30;2.60;;;5.60;99.90;;;;;;5440982;26;20347;-78
2024/04/20 06:59:51;;;;;;;4.27;3.03;;;5.60;99.90;;;;;;5442961;26;20269;-78
2024/04/20 07:02:17;;;;;;;3.87;2.73;;;5.70;99.90;;;;;;5447187;26;20234;-78
2024/04/20 07:04:42;;;;;;;2.87;2.53;;;5.90;99.90;;;;;;5440901;26;20289;-78
2024/04/20 07:07:08;;;;;;;3.17;2.67;;;5.90;99.90;;;;;;5446370;26;21142;-78
2024/04/20 07:09:34;;;;;;;3.47;2.20;;;6.00;99.90;;;;;;5446626;26;20234;-78
2024/04/20 07:12:00;;;;;;;3.80;2.20;;;6.10;99.90;;;;;;5444141;26;20243;-78
2024/04/20 07:14:26;;;;;;;2.60;2.00;;;6.00;99.90;;;;;;5446115;26;20245;-78
2024/04/20 07:16:54;;;;;;;4.83;2.40;;;6.00;99.90;;;;;;5448742;26;20284;-78
2024/04/20 07:19:20;;;;;;;2.10;1.67;;;6.00;99.90;;;;;;5446819;26;20250;-78
2024/04/20 07:21:45;;;;;;;2.43;1.83;;;6.20;99.90;;;;;;5444069;26;20230;-78
2024/04/20 07:24:11;;;;;;;1.90;1.60;;;6.20;99.90;;;;;;5455719;26;20241;-78
2024/04/20 07:26:37;;;;;;;2.00;1.60;;;6.30;99.90;;;;;;5444054;26;20281;-78
2024/04/20 07:29:03;;;;;;;3.07;1.70;;;6.30;99.90;;;;;;5449725;26;21067;-78
2024/04/20 07:31:29;;;;;;;8.03;2.90;;;6.30;99.90;;;;;;5446882;26;20269;-77
2024/04/20 07:33:57;;;;;;;2.93;1.87;;;6.30;99.90;;;;;;5445256;26;20322;-78
2024/04/20 07:36:22;;;;;;;4.13;2.27;;;6.40;99.90;;;;;;5448418;26;20326;-78
2024/04/20 07:42:10;;;;;;;4.47;1.70;;;6.90;99.90;;;;;;5441340;26;20277;-78
2024/04/20 07:44:36;;;;;;;2.80;1.77;;;7.10;99.90;;;;;;5447355;26;20223;-79
2024/04/20 07:47:03;;;;;;;3.60;1.70;;;7.10;99.90;;;;;;5445105;26;20734;-78
2024/04/20 07:49:29;;;;;;;3.10;1.57;;;7.20;99.90;;;;;;5445770;26;20629;-78
2024/04/20 07:51:54;;;;;;;3.40;2.00;;;7.00;99.90;;;;;;5447329;26;20329;-78
2024/04/20 07:54:21;;;;;;;3.37;1.70;;;7.10;99.90;;;;;;5446915;26;20238;-78
2024/04/20 07:56:47;;;;;;;2.60;1.50;;;7.30;99.90;;;;;;5446374;26;20226;-79
2024/04/20 07:59:12;;;;;;;3.90;1.90;;;7.40;99.90;;;;;;5445221;26;20276;-78
2024/04/20 08:01:38;;;;;;;2.00;1.60;;;7.60;99.90;;;;;;5446525;26;20726;-78
2024/04/20 08:04:04;;;;;;;3.60;1.70;;;7.60;99.90;;;;;;5449930;26;20226;-79
2024/04/20 08:06:30;;;;;;;2.20;1.70;;;7.70;99.90;;;;;;5446012;26;20252;-78
2024/04/20 08:08:55;;;;;;;4.60;1.87;;;7.80;99.90;;;;;;5447770;26;20257;-78
2024/04/20 08:11:21;;;;;;;3.83;1.83;;;8.00;99.90;;;;;;5446442;26;20226;-78
2024/04/20 08:13:46;;;;;;;4.03;2.10;;;8.30;99.90;;;;;;5439954;26;20230;-78
2024/04/20 08:16:12;;;;;;;2.23;1.43;;;8.60;99.90;;;;;;5449137;26;20226;-78
2024/04/20 08:18:38;;;;;;;3.90;1.67;;;8.70;99.90;;;;;;5445950;26;20222;-78
2024/04/20 08:21:03;;;;;;;3.87;1.87;;;8.50;99.90;;;;;;5446358;26;20245;-78
2024/04/20 08:23:29;;;;;;;3.77;1.70;;;8.30;99.90;;;;;;5447343;26;20226;-78
2024/04/20 08:25:55;;;;;;;6.37;1.63;;;8.10;99.90;;;;;;5447186;26;20307;-78
2024/04/20 08:28:21;;;;;;;4.17;1.70;;;8.00;99.90;;;;;;5444762;26;20261;-78
2024/04/20 08:30:46;;;;;;;4.20;1.43;;;8.00;99.90;;;;;;5447249;26;20268;-78
2024/04/20 08:33:13;;;;;;;2.30;1.40;;;7.90;99.90;;;;;;5444625;26;20297;-78
2024/04/20 08:35:39;;;;;;;3.40;1.73;;;7.90;99.90;;;;;;5445671;26;20242;-78
2024/04/20 08:38:05;;;;;;;4.50;1.50;;;7.70;99.90;;;;;;5446453;26;20269;-78
2024/04/20 08:40:36;;;;;;;1.70;1.30;;;7.50;99.90;;;;;;5436942;26;20238;-78
2024/04/20 08:43:04;;;;;;;2.00;1.53;;;7.20;99.90;;;;;;5446109;26;20330;-78
2024/04/20 08:45:33;;;;;;;1.70;1.33;;;7.10;99.90;;;;;;5445149;26;20626;-78
2024/04/20 08:48:00;;;;;;;3.87;1.60;;;7.10;99.90;;;;;;5448140;26;20265;-78
2024/04/20 08:50:28;;;;;;;1.97;1.37;;;7.10;99.90;;;;;;5447068;26;20234;-78
2024/04/20 08:52:58;;;;;;;1.97;1.33;;;6.90;99.90;;;;;;5446462;26;20378;-78
2024/04/20 08:55:25;;;;;;;2.10;1.40;;;6.70;99.90;;;;;;5446436;26;20252;-78
2024/04/20 08:57:51;;;;;;;2.87;1.40;;;6.50;99.90;;;;;;5444388;26;20273;-78
2024/04/20 09:00:17;;;;;;;2.60;1.30;;;6.40;99.90;;;;;;5445677;26;20230;-78
2024/04/20 09:02:44;;;;;;;1.83;1.17;;;6.40;99.90;;;;;;5442863;26;20737;-78
2024/04/20 09:05:12;;;;;;;3.77;1.40;;;6.40;99.90;;;;;;5446698;26;20574;-78
2024/04/20 09:07:38;;;;;;;1.40;1.10;;;6.40;99.90;;;;;;5447704;26;20634;-78
2024/04/20 09:10:05;;;;;;;3.33;1.30;;;6.50;99.90;;;;;;5446137;26;20241;-78
2024/04/20 09:12:30;;;;;;;3.50;1.70;;;6.50;99.90;;;;;;5446047;26;20267;-79
2024/04/20 09:14:57;;;;;;;2.33;1.50;;;6.50;99.90;;;;;;5444389;26;20238;-78
2024/04/20 09:17:23;;;;;;;2.33;1.10;;;6.50;99.90;;;;;;5446743;26;20328;-78
2024/04/20 09:19:49;;;;;;;1.50;1.40;;;6.50;99.90;;;;;;5444799;26;20288;-78
2024/04/20 09:22:17;;;;;;;1.67;1.53;;;6.50;99.90;;;;;;5446573;26;20289;-78
2024/04/20 09:24:43;;;;;;;2.40;1.50;;;6.60;99.90;;;;;;5447739;26;20281;-78
2024/04/20 09:27:12;;;;;;;1.83;1.47;;;6.70;99.90;;;;;;5442629;26;20230;-78
2024/04/20 09:29:39;;;;;;;1.33;1.00;;;7.00;99.90;;;;;;5445223;26;20858;-78
2024/04/20 09:32:11;;;;;;;1.90;1.10;;;7.50;99.90;;;;;;5445579;26;20288;-78
2024/04/20 09:34:37;;;;;;;2.20;1.50;;;7.90;99.90;;;;;;5445867;26;20238;-79
2024/04/20 09:37:02;;;;;;;1.10;1.00;;;8.40;99.90;;;;;;5445665;26;20252;-79
2024/04/20 09:39:28;;;;;;;1.63;1.10;;;8.70;99.90;;;;;;5448447;26;20226;-79
2024/04/20 09:41:55;;;;;;;2.30;1.00;;;8.90;99.90;;;;;;5446051;26;20238;-79
2024/04/20 09:44:22;;;;;;;2.33;1.20;;;8.90;99.90;;;;;;5435132;26;20257;-79
2024/04/20 09:46:49;;;;;;;2.33;1.00;;;8.60;99.90;;;;;;5445637;26;20651;-79
2024/04/20 09:49:16;;;;;;;3.37;1.10;;;8.40;99.90;;;;;;5445186;26;20742;-78
2024/04/20 09:55:14;;;;;;;2.07;1.37;;;7.70;99.90;;;;;;6320057;21;20297;-77
2024/04/20 09:57:41;;;;;;;2.40;1.40;;;7.40;99.90;;;;;;5371412;26;20235;-77
2024/04/20 10:00:09;;;;;;;2.00;1.50;;;7.30;99.90;;;;;;5373155;26;20299;-78
2024/04/20 10:02:35;;;;;;;3.60;1.67;;;7.10;99.90;;;;;;5374367;26;20241;-78
2024/04/20 10:05:01;;;;;;;2.40;1.40;;;6.90;99.90;;;;;;5361499;26;20235;-78
2024/04/20 10:07:32;;;;;;;2.27;1.20;;;6.80;99.90;;;;;;5353488;26;20249;-78
2024/04/20 10:10:04;;;;;;;1.13;1.00;;;6.70;99.90;;;;;;5339484;26;20379;-78
2024/04/20 10:12:29;;;;;;;0.90;0.80;;;6.70;99.90;;;;;;5346435;26;20304;-78
2024/04/20 10:14:57;;;;;;;0.80;0.70;;;7.00;99.90;;;;;;5341859;26;20241;-78
2024/04/20 10:17:25;;;;;;;0.97;0.70;;;7.30;99.90;;;;;;5350007;26;20241;-78
2024/04/20 10:19:52;;;;;;;1.00;0.90;;;7.60;99.90;;;;;;5347186;26;20833;-78
2024/04/20 10:22:21;;;;;;;0.63;0.60;;;8.00;99.90;;;;;;5352432;26;20280;-78
2024/04/20 10:25:10;;;;;;;1.27;0.80;;;8.30;99.90;;;;;;5346466;26;20309;-78
2024/04/20 10:27:38;;;;;;;1.27;1.17;;;8.60;99.90;;;;;;5338347;26;20319;-78
2024/04/20 10:30:21;;;;;;;2.30;1.10;;;8.60;99.90;;;;;;5356543;26;20632;-78
2024/04/20 10:33:02;;;;;;;1.93;1.03;;;8.60;99.90;;;;;;5338383;26;20240;-78
2024/04/20 10:35:28;;;;;;;1.10;0.90;;;8.70;99.90;;;;;;5339452;26;20241;-78
2024/04/20 10:38:09;;;;;;;0.90;0.75;;;8.80;99.90;;;;;;5356518;26;20680;-79
2024/04/20 10:40:36;;;;;;;1.75;1.23;;;8.90;99.90;;;;;;5349014;26;20824;-78
2024/04/20 10:43:21;;;;;;;3.97;0.90;;;8.90;99.90;;;;;;5340146;26;20347;-78
2024/04/20 10:45:58;;;;;;;1.40;1.10;;;8.90;99.90;;;;;;5331366;26;20375;-78
2024/04/20 10:48:25;;;;;;;1.10;0.90;;;9.10;99.90;;;;;;5340524;26;20232;-79
2024/04/20 10:50:58;;;;;;;1.70;1.10;;;9.10;99.90;;;;;;5341997;26;20245;-78
2024/04/20 10:53:24;;;;;;;1.60;0.98;;;9.00;99.90;;;;;;5358295;26;20244;-78
2024/04/20 10:55:59;;;;;;;0.95;0.70;;;8.70;99.90;;;;;;5355108;26;20493;-78
2024/04/20 10:58:26;;;;;;;3.92;0.90;;;8.70;99.90;;;;;;5343080;26;20288;-79
2024/04/20 11:00:57;;;;;;;1.93;0.97;;;8.60;99.90;;;;;;5339862;26;20232;-78
2024/04/20 11:03:23;;;;;;;1.88;0.77;;;8.80;99.90;;;;;;5348520;26;20344;-78
2024/04/20 11:05:57;;;;;;;1.63;1.00;;;8.70;99.90;;;;;;5344655;26;20768;-78
2024/04/20 11:08:26;;;;;;;1.88;0.95;;;8.90;99.90;;;;;;5356056;26;20639;-78
2024/04/20 11:10:58;;;;;;;0.90;0.63;;;9.00;99.90;;;;;;5340575;26;20261;-78
2024/04/20 11:13:24;;;;;;;9.90;1.40;;;8.90;99.90;;;;;;5340087;26;20293;-78
2024/04/20 11:15:50;;;;;;;1.27;0.90;;;8.80;99.90;;;;;;5341149;26;20229;-78
2024/04/20 11:18:17;;;;;;;1.60;1.00;;;8.80;99.90;;;;;;5341924;26;20283;-78
2024/04/20 11:20:43;;;;;;;1.88;1.00;;;8.80;99.90;;;;;;5342194;26;20260;-78
2024/04/20 11:23:09;;;;;;;2.20;0.97;;;8.80;99.90;;;;;;5342591;26;20264;-78
2024/04/20 11:25:35;;;;;;;2.30;1.40;;;8.70;99.90;;;;;;5354870;26;20253;-78
2024/04/20 11:28:02;;;;;;;1.73;0.90;;;8.70;99.90;;;;;;5360973;26;20237;-78
2024/04/20 11:30:28;;;;;;;1.60;0.90;;;8.50;99.90;;;;;;5361395;26;20271;-78
2024/04/20 11:32:57;;;;;;;1.98;1.10;;;8.50;99.90;;;;;;5342029;26;20237;-78
2024/04/20 11:35:23;;;;;;;1.80;1.10;;;8.60;99.90;;;;;;5355365;26;20237;-78
2024/04/20 11:37:48;;;;;;;1.45;1.05;;;8.70;99.90;;;;;;5368850;26;20837;-78
2024/04/20 11:40:15;;;;;;;1.10;1.00;;;8.70;99.90;;;;;;5355264;26;20276;-78
2024/04/20 11:42:44;;;;;;;2.97;0.90;;;8.70;99.90;;;;;;5369857;26;20232;-78
2024/04/20 11:45:16;;;;;;;1.00;0.90;;;8.60;99.90;;;;;;5355541;26;20793;-78
2024/04/20 11:47:42;;;;;;;1.80;0.88;;;8.60;99.90;;;;;;5341117;26;20237;-78
2024/04/20 11:50:08;;;;;;;1.20;0.82;;;8.60;99.90;;;;;;5354139;26;20268;-78
2024/04/20 11:55:18;;;;;;;1.88;1.00;;;8.40;99.90;;;;;;5329850;26;20283;-78
2024/04/20 11:57:44;;;;;;;1.30;0.80;;;8.50;99.90;;;;;;5370411;26;20236;-78
2024/04/20 12:00:12;;;;;;;1.70;0.90;;;8.60;99.90;;;;;;5350092;26;20834;-78
2024/04/20 12:02:39;;;;;;;0.98;0.73;;;8.60;99.90;;;;;;5339316;26;20275;-78
2024/04/20 12:05:05;;;;;;;1.37;0.70;;;8.50;99.90;;;;;;5354120;26;20253;-78
2024/04/20 12:07:33;;;;;;;0.97;0.50;;;8.60;99.90;;;;;;5350451;26;20303;-78
2024/04/20 12:09:59;;;;;;;0.98;0.70;;;8.40;99.90;;;;;;5375245;26;20626;-78
2024/04/20 12:12:25;;;;;;;1.43;0.70;;;8.30;99.90;;;;;;5351552;26;20233;-78
2024/04/20 12:14:50;;;;;;;1.70;0.83;;;8.10;99.90;;;;;;5342064;26;20233;-78
2024/04/20 12:18:12;;;;;;;0.87;0.70;;;8.00;99.90;;;;;;5353625;26;20229;-78
2024/04/20 12:20:38;;;;;;;2.67;0.80;;;7.80;99.90;;;;;;5346707;26;20580;-78
2024/04/20 12:23:04;;;;;;;1.20;0.83;;;7.70;99.90;;;;;;5340029;26;20264;-78
2024/04/20 12:25:29;;;;;;;1.00;0.90;;;7.60;99.90;;;;;;5353931;26;20232;-78
2024/04/20 12:27:55;;;;;;;2.57;1.03;;;7.60;99.90;;;;;;5344042;26;20233;-78
2024/04/20 12:30:21;;;;;;;2.20;1.00;;;7.60;99.90;;;;;;5351404;26;20727;-78
2024/04/20 12:32:46;;;;;;;2.17;1.33;;;7.50;99.90;;;;;;5339946;26;20233;-78
2024/04/20 12:35:12;;;;;;;2.97;1.30;;;7.50;99.90;;;;;;5353853;26;20237;-78
2024/04/20 12:37:38;;;;;;;2.63;1.10;;;7.50;99.90;;;;;;5341280;26;20229;-78
2024/04/20 12:40:04;;;;;;;3.93;3.03;;;7.50;99.90;;;;;;5354694;26;20233;-78
2024/04/20 12:42:30;;;;;;;2.13;1.60;;;7.60;99.90;;;;;;5337987;26;20233;-78
2024/04/20 12:45:00;;;;;;;2.53;2.20;;;7.70;99.90;;;;;;5336978;26;20288;-78
2024/04/20 12:47:25;;;;;;;1.88;1.20;;;8.00;99.90;;;;;;5338190;26;20237;-78
2024/04/20 12:49:51;;;;;;;1.93;1.57;;;8.20;99.90;;;;;;5356575;26;20227;-79
2024/04/20 12:52:17;;;;;;;2.25;1.30;;;8.60;99.90;;;;;;5319098;26;20383;-78
2024/04/20 12:54:43;;;;;;;1.90;1.20;;;8.90;99.90;;;;;;5365677;26;20295;-79
2024/04/20 12:57:09;;;;;;;1.80;1.15;;;9.20;99.90;;;;;;5334697;26;20598;-78
2024/04/20 12:59:35;;;;;;;2.60;2.40;;;9.30;99.90;;;;;;5361338;26;20695;-78
2024/04/20 13:02:00;;;;;;;3.50;2.17;;;9.60;99.90;;;;;;5352226;26;20635;-78
2024/04/20 13:04:26;;;;;;;2.40;1.70;;;9.70;99.90;;;;;;5352611;26;20768;-78
2024/04/20 13:06:52;;;;;;;1.30;1.13;;;9.50;99.90;;;;;;5351283;26;20259;-79